Аэропорт: Игнатьево. Благовещенск

ICAO: UHBB

METAR:
2020-08-09 22:30:00
UHBB 092230Z 22004MPS 9999 SCT010 BKN026CB 19/16 Q0992 R18/290250 NOSIG RMK QFE729/0972
METAR:
2020-08-09 20:40:00
TAF AMD UHBB 092040Z 0921/1021 20005G10MPS 9999 BKN008 BKN020CB FM100000 25006G11MPS 9999 SCT011 BKN020CB TEMPO 1000/1012 3100 -SHRA BKN011 BKN020CB BECMG 1008/1011 27003MPS